Time;durP1;ratioP1;P1;durP2;ratioP2;P2;SDS_P1;SDS_P2;PMS_P1;PMS_P2;Temp;Humidity;BMP_temperature;BMP_pressure;BME280_temperature;BME280_humidity;BME280_pressure;Samples;Min_cycle;Max_cycle;Signal;HPM_P1;HPM_P2
2021/03/07 00:00:09;;;;;;;0.87;0.67;;;3.90;99.90;;;;;;4983621;28;20191;-90
2021/03/07 00:02:35;;;;;;;0.37;0.37;;;3.90;99.90;;;;;;4990267;28;20302;-90
2021/03/07 00:05:01;;;;;;;0.40;0.40;;;3.90;99.90;;;;;;4984298;28;21108;-91
2021/03/07 00:07:27;;;;;;;0.30;0.30;;;3.90;99.90;;;;;;4979750;28;20216;-91
2021/03/07 00:09:52;;;;;;;0.30;0.30;;;3.90;99.90;;;;;;4962987;28;20228;-92
2021/03/07 00:12:18;;;;;;;0.40;0.40;;;3.90;99.90;;;;;;4970015;28;20586;-91
2021/03/07 00:14:44;;;;;;;0.33;0.33;;;3.90;99.90;;;;;;4957047;28;20236;-91
2021/03/07 00:17:09;;;;;;;0.73;0.50;;;3.90;99.90;;;;;;4967441;28;21070;-91
2021/03/07 00:19:35;;;;;;;1.20;0.80;;;3.90;99.90;;;;;;4974182;28;20218;-91
2021/03/07 00:22:01;;;;;;;0.30;0.30;;;3.90;99.90;;;;;;4999629;28;20215;-91
2021/03/07 00:24:27;;;;;;;0.30;0.30;;;3.90;99.90;;;;;;5000674;28;21074;-90
2021/03/07 00:26:52;;;;;;;0.53;0.53;;;3.90;99.90;;;;;;4985700;28;20192;-90
2021/03/07 00:29:18;;;;;;;0.20;0.20;;;4.00;99.90;;;;;;5002478;28;20223;-91
2021/03/07 00:31:44;;;;;;;0.47;0.47;;;4.00;99.90;;;;;;4982996;28;20228;-89
2021/03/07 00:34:10;;;;;;;0.80;0.80;;;3.90;99.90;;;;;;4984332;28;20645;-90
2021/03/07 00:36:36;;;;;;;0.30;0.30;;;3.90;99.90;;;;;;5003280;28;20309;-90
2021/03/07 00:39:03;;;;;;;0.30;0.30;;;3.90;99.90;;;;;;5004679;28;20566;-90
2021/03/07 00:41:29;;;;;;;0.30;0.30;;;3.90;99.90;;;;;;5004345;28;20227;-90
2021/03/07 00:43:55;;;;;;;0.40;0.40;;;3.80;99.90;;;;;;4987541;28;20211;-90
2021/03/07 00:46:20;;;;;;;0.83;0.83;;;3.80;99.90;;;;;;4985945;28;20215;-90
2021/03/07 00:48:46;;;;;;;0.97;0.70;;;3.80;99.90;;;;;;5003389;28;20314;-90
2021/03/07 00:51:12;;;;;;;0.20;0.20;;;3.80;99.90;;;;;;4988141;28;20664;-89
2021/03/07 00:53:37;;;;;;;0.43;0.43;;;3.80;99.90;;;;;;4983676;28;21032;-91
2021/03/07 00:56:03;;;;;;;0.23;0.23;;;3.80;99.90;;;;;;4985489;28;20691;-89
2021/03/07 00:58:29;;;;;;;1.30;0.50;;;3.80;99.90;;;;;;4974293;28;20258;-89
2021/03/07 01:00:55;;;;;;;0.30;0.30;;;3.80;99.90;;;;;;4978275;28;21015;-89
2021/03/07 01:03:21;;;;;;;0.73;0.50;;;3.70;99.90;;;;;;4926626;28;21002;-90
2021/03/07 01:05:46;;;;;;;0.20;0.20;;;3.80;99.90;;;;;;4985633;28;20629;-90
2021/03/07 01:08:12;;;;;;;1.37;1.27;;;3.80;99.90;;;;;;4945456;28;20744;-90
2021/03/07 01:10:41;;;;;;;0.87;0.50;;;3.80;99.90;;;;;;4999011;28;21022;-93
2021/03/07 01:13:12;;;;;;;0.30;0.30;;;3.80;99.90;;;;;;4974927;28;21235;-89
2021/03/07 01:15:39;;;;;;;0.53;0.53;;;3.80;99.90;;;;;;5001550;28;20223;-91
2021/03/07 01:18:05;;;;;;;0.70;0.70;;;3.80;99.90;;;;;;5003255;28;21062;-91
2021/03/07 01:20:32;;;;;;;0.40;0.40;;;3.80;99.90;;;;;;4998421;28;20219;-91
2021/03/07 01:22:58;;;;;;;0.93;0.93;;;3.80;99.90;;;;;;5000744;28;20284;-91
2021/03/07 01:25:31;;;;;;;0.30;0.30;;;3.80;99.90;;;;;;4999949;28;20212;-91
2021/03/07 01:27:57;;;;;;;0.60;0.60;;;3.80;99.90;;;;;;4975037;28;20258;-89
2021/03/07 01:30:24;;;;;;;0.40;0.40;;;3.80;99.90;;;;;;4980420;28;20275;-92
2021/03/07 01:32:50;;;;;;;0.50;0.50;;;3.90;99.90;;;;;;5001233;28;20297;-89
2021/03/07 01:35:17;;;;;;;0.40;0.40;;;3.80;99.90;;;;;;4979938;28;20754;-90
2021/03/07 01:37:42;;;;;;;10.40;1.03;;;3.80;99.90;;;;;;4983090;28;20685;-91
2021/03/07 01:40:12;;;;;;;0.50;0.50;;;3.80;99.90;;;;;;4965202;28;20407;-90
2021/03/07 01:42:43;;;;;;;0.47;0.47;;;3.80;99.90;;;;;;4998172;28;20681;-90
2021/03/07 01:45:09;;;;;;;0.40;0.40;;;3.80;99.90;;;;;;5000155;28;20191;-91
2021/03/07 01:47:42;;;;;;;0.50;0.50;;;3.90;99.90;;;;;;4983055;28;20222;-91
2021/03/07 01:50:08;;;;;;;0.43;0.43;;;3.90;99.90;;;;;;4999636;28;20306;-91
2021/03/07 01:52:34;;;;;;;0.40;0.40;;;3.80;99.90;;;;;;4998733;28;20558;-90
2021/03/07 01:55:00;;;;;;;0.50;0.50;;;3.80;99.90;;;;;;4982878;28;21139;-91
2021/03/07 01:57:28;;;;;;;0.40;0.40;;;3.80;99.90;;;;;;4992340;28;20207;-91
2021/03/07 01:59:58;;;;;;;0.30;0.30;;;3.90;99.90;;;;;;4995680;28;20180;-91
2021/03/07 02:02:24;;;;;;;0.40;0.40;;;3.90;99.90;;;;;;4999462;28;20203;-90
2021/03/07 02:04:50;;;;;;;0.60;0.60;;;3.90;99.90;;;;;;4992791;28;20809;-91
2021/03/07 02:07:15;;;;;;;0.30;0.30;;;3.90;99.90;;;;;;4966897;28;20219;-91
2021/03/07 02:09:42;;;;;;;0.30;0.30;;;3.90;99.90;;;;;;4982974;28;21014;-91
2021/03/07 02:12:08;;;;;;;0.83;0.80;;;4.00;99.90;;;;;;5001885;28;20180;-90
2021/03/07 02:14:36;;;;;;;0.30;0.30;;;4.00;99.90;;;;;;4983473;28;21085;-91
2021/03/07 02:17:01;;;;;;;0.30;0.30;;;4.00;99.90;;;;;;4984162;28;20211;-91
2021/03/07 02:19:34;;;;;;;0.50;0.50;;;4.00;99.90;;;;;;5000461;28;20728;-91
2021/03/07 02:22:05;;;;;;;2.43;0.47;;;4.00;99.90;;;;;;4998338;28;20215;-90
2021/03/07 02:24:32;;;;;;;0.40;0.40;;;4.00;99.90;;;;;;4997616;28;20286;-91
2021/03/07 02:27:00;;;;;;;0.60;0.60;;;4.00;99.90;;;;;;4994193;28;20688;-89
2021/03/07 02:29:26;;;;;;;0.70;0.70;;;4.00;99.90;;;;;;4959183;28;20217;-89
2021/03/07 02:31:59;;;;;;;0.30;0.30;;;4.00;99.90;;;;;;4989547;28;20266;-91
2021/03/07 02:34:41;;;;;;;0.27;0.27;;;3.90;99.90;;;;;;4996852;28;20314;-92
2021/03/07 02:37:09;;;;;;;0.30;0.30;;;3.90;99.90;;;;;;4997193;28;20223;-92
2021/03/07 02:39:39;;;;;;;0.40;0.40;;;3.90;99.90;;;;;;4992427;28;20259;-92
2021/03/07 02:42:19;;;;;;;0.30;0.30;;;4.00;99.90;;;;;;4998838;28;20192;-92
2021/03/07 02:44:51;;;;;;;0.30;0.30;;;4.00;99.90;;;;;;4995402;28;20260;-88
2021/03/07 02:47:19;;;;;;;0.93;0.60;;;4.00;99.90;;;;;;4999521;28;20302;-91
2021/03/07 02:49:46;;;;;;;0.30;0.30;;;4.00;99.90;;;;;;4966243;28;20215;-90
2021/03/07 02:52:13;;;;;;;0.30;0.30;;;4.00;99.90;;;;;;4998427;28;20219;-90
2021/03/07 02:54:40;;;;;;;0.30;0.30;;;4.00;99.90;;;;;;4996812;28;20231;-91
2021/03/07 02:57:08;;;;;;;0.40;0.40;;;4.00;99.90;;;;;;4998061;28;20203;-90
2021/03/07 02:59:36;;;;;;;0.40;0.40;;;4.00;99.90;;;;;;5007118;28;20219;-90
2021/03/07 03:02:04;;;;;;;0.40;0.40;;;4.00;99.90;;;;;;4993683;28;20800;-91
2021/03/07 03:04:30;;;;;;;0.43;0.37;;;4.10;99.90;;;;;;4992365;28;20691;-88
2021/03/07 03:06:57;;;;;;;0.50;0.50;;;4.10;99.90;;;;;;4973010;28;20680;-89
2021/03/07 03:09:23;;;;;;;0.40;0.40;;;4.10;99.90;;;;;;4996704;28;20183;-89
2021/03/07 03:11:54;;;;;;;0.60;0.57;;;4.10;99.90;;;;;;4982555;28;20188;-91
2021/03/07 03:14:21;;;;;;;0.50;0.50;;;4.10;99.90;;;;;;4989945;28;20227;-90
2021/03/07 03:16:56;;;;;;;0.60;0.60;;;4.10;99.90;;;;;;4994379;28;20223;-89
2021/03/07 03:19:25;;;;;;;0.40;0.40;;;4.10;99.90;;;;;;4997687;28;20270;-89
2021/03/07 03:21:51;;;;;;;0.50;0.50;;;4.10;99.90;;;;;;4993832;28;20322;-90
2021/03/07 03:24:18;;;;;;;1.17;1.07;;;4.10;99.90;;;;;;4974012;28;20384;-90
2021/03/07 03:26:43;;;;;;;0.60;0.60;;;4.10;99.90;;;;;;4998164;28;20183;-90
2021/03/07 03:29:09;;;;;;;0.50;0.50;;;4.10;99.90;;;;;;4982304;28;20677;-89
2021/03/07 03:31:35;;;;;;;1.17;0.97;;;4.10;99.90;;;;;;4979651;28;20242;-90
2021/03/07 03:34:06;;;;;;;0.90;0.90;;;4.10;99.90;;;;;;4975620;28;20246;-90
2021/03/07 03:36:34;;;;;;;0.77;0.77;;;4.10;99.90;;;;;;4961900;28;20283;-90
2021/03/07 03:39:19;;;;;;;0.93;0.93;;;4.10;99.90;;;;;;4998955;28;20662;-89
2021/03/07 03:41:51;;;;;;;3.03;0.83;;;4.10;99.90;;;;;;4997689;28;20215;-90
2021/03/07 03:44:22;;;;;;;0.83;0.83;;;4.10;99.90;;;;;;4996935;28;21083;-90
2021/03/07 03:46:51;;;;;;;0.80;0.70;;;4.10;99.90;;;;;;4997393;28;20211;-90
2021/03/07 03:49:28;;;;;;;0.43;0.43;;;4.10;99.90;;;;;;4998027;28;20739;-90
2021/03/07 03:51:59;;;;;;;0.77;0.77;;;4.10;99.90;;;;;;4998597;28;20794;-90
2021/03/07 03:54:28;;;;;;;0.97;0.70;;;4.10;99.90;;;;;;4973086;28;20225;-89
2021/03/07 03:56:56;;;;;;;0.40;0.40;;;4.10;99.90;;;;;;4999524;28;20282;-89
2021/03/07 03:59:25;;;;;;;1.00;1.00;;;4.10;99.90;;;;;;4992648;28;20238;-89
2021/03/07 04:01:53;;;;;;;0.57;0.57;;;4.10;99.90;;;;;;5001157;28;20220;-89
2021/03/07 04:04:19;;;;;;;0.50;0.50;;;4.10;99.90;;;;;;4980732;28;20253;-88
2021/03/07 04:06:47;;;;;;;0.87;0.83;;;4.10;99.90;;;;;;4979872;28;20290;-90
2021/03/07 04:09:14;;;;;;;0.40;0.40;;;4.10;99.90;;;;;;4996892;28;20199;-87
2021/03/07 04:11:39;;;;;;;2.97;0.87;;;4.10;99.90;;;;;;4995688;28;20358;-88
2021/03/07 04:14:07;;;;;;;1.40;0.97;;;4.00;99.90;;;;;;4980711;28;20219;-89
2021/03/07 04:16:33;;;;;;;12.20;1.03;;;4.00;99.90;;;;;;4997999;28;20775;-88
2021/03/07 04:18:59;;;;;;;1.57;1.47;;;4.00;99.90;;;;;;5013223;28;20227;-87
2021/03/07 04:21:25;;;;;;;0.70;0.70;;;4.00;99.90;;;;;;4979101;28;20683;-87
2021/03/07 04:23:51;;;;;;;0.30;0.30;;;4.00;99.90;;;;;;4998412;28;20319;-88
2021/03/07 04:26:17;;;;;;;0.40;0.40;;;3.90;99.90;;;;;;4996307;28;20243;-87
2021/03/07 04:28:44;;;;;;;1.17;0.77;;;3.90;99.90;;;;;;4997036;28;20250;-87
2021/03/07 04:31:10;;;;;;;1.30;1.30;;;3.90;99.90;;;;;;4972505;28;20215;-88
2021/03/07 04:33:37;;;;;;;0.73;0.73;;;4.00;99.90;;;;;;4989907;28;20338;-88
2021/03/07 04:36:04;;;;;;;1.00;0.77;;;4.00;99.90;;;;;;4996493;28;20656;-89
2021/03/07 04:38:31;;;;;;;0.97;0.63;;;4.00;99.90;;;;;;5008461;28;20224;-89
2021/03/07 04:40:57;;;;;;;6.40;0.70;;;4.00;99.90;;;;;;5002538;28;20230;-87
2021/03/07 04:43:24;;;;;;;0.50;0.50;;;3.90;99.90;;;;;;5001387;28;20681;-87
2021/03/07 04:45:50;;;;;;;1.33;0.70;;;4.00;99.90;;;;;;4976216;28;20807;-86
2021/03/07 04:48:16;;;;;;;0.60;0.60;;;3.90;99.90;;;;;;4999808;28;20191;-85
2021/03/07 04:50:42;;;;;;;0.53;0.53;;;3.90;99.90;;;;;;4985042;28;20890;-87
2021/03/07 04:53:07;;;;;;;0.80;0.80;;;3.90;99.90;;;;;;4999451;28;20246;-88
2021/03/07 04:55:33;;;;;;;0.80;0.80;;;3.90;99.90;;;;;;4959885;28;20322;-87
2021/03/07 04:57:59;;;;;;;0.40;0.40;;;3.90;99.90;;;;;;4978507;28;21024;-87
2021/03/07 05:00:25;;;;;;;0.60;0.60;;;3.90;99.90;;;;;;4961689;28;20662;-87
2021/03/07 05:02:51;;;;;;;0.70;0.50;;;3.90;99.90;;;;;;4980274;28;20187;-89
2021/03/07 05:05:17;;;;;;;0.50;0.50;;;3.90;99.90;;;;;;4963604;28;20250;-89
2021/03/07 05:07:43;;;;;;;0.50;0.50;;;4.00;99.90;;;;;;4964500;28;20373;-89
2021/03/07 05:10:09;;;;;;;0.30;0.30;;;4.00;99.90;;;;;;4979435;28;20318;-89
2021/03/07 05:12:35;;;;;;;0.97;0.67;;;3.90;99.90;;;;;;4980467;28;20180;-88
2021/03/07 05:15:03;;;;;;;0.63;0.63;;;3.90;99.90;;;;;;4981067;28;20210;-89
2021/03/07 05:17:29;;;;;;;0.80;0.80;;;3.90;99.90;;;;;;4981112;28;20256;-90
2021/03/07 05:19:54;;;;;;;0.73;0.73;;;3.90;99.90;;;;;;4973209;28;20224;-89
2021/03/07 05:22:20;;;;;;;0.80;0.80;;;3.80;99.90;;;;;;4964479;28;20669;-89
2021/03/07 05:24:46;;;;;;;0.50;0.50;;;3.90;99.90;;;;;;4963546;28;20235;-88
2021/03/07 05:27:12;;;;;;;1.17;1.07;;;4.00;99.90;;;;;;4960644;28;20284;-88
2021/03/07 05:29:38;;;;;;;0.70;0.70;;;4.00;99.90;;;;;;4948205;28;20974;-90
2021/03/07 05:32:05;;;;;;;1.77;1.67;;;4.00;99.90;;;;;;4966804;28;20220;-88
2021/03/07 05:34:31;;;;;;;1.40;1.30;;;3.90;99.90;;;;;;4960086;28;20271;-88
2021/03/07 05:36:57;;;;;;;1.10;1.03;;;3.90;99.90;;;;;;4989513;28;21251;-88
2021/03/07 05:39:24;;;;;;;1.00;0.90;;;3.80;99.90;;;;;;4963153;28;20188;-89
2021/03/07 05:41:50;;;;;;;1.07;1.03;;;3.80;99.90;;;;;;4973657;28;20206;-89
2021/03/07 05:44:16;;;;;;;1.63;1.53;;;3.80;99.90;;;;;;4945696;28;20224;-89
2021/03/07 05:46:42;;;;;;;1.47;1.00;;;3.80;99.90;;;;;;4955946;28;20218;-88
2021/03/07 05:49:08;;;;;;;3.03;1.13;;;3.80;99.90;;;;;;4959216;28;20576;-89
2021/03/07 05:51:34;;;;;;;0.40;0.40;;;3.80;99.90;;;;;;4963682;28;20275;-89
2021/03/07 05:54:00;;;;;;;2.33;1.57;;;3.80;99.90;;;;;;4979547;28;20215;-89
2021/03/07 05:56:27;;;;;;;2.07;1.93;;;3.80;99.90;;;;;;4981218;28;20259;-88
2021/03/07 05:58:56;;;;;;;1.43;1.30;;;3.80;99.90;;;;;;4996495;28;20216;-88
2021/03/07 06:01:21;;;;;;;1.60;1.30;;;3.80;99.90;;;;;;4976837;28;20587;-88
2021/03/07 06:03:47;;;;;;;1.80;1.70;;;3.80;99.90;;;;;;4991355;28;20231;-88
2021/03/07 06:06:13;;;;;;;0.90;0.90;;;3.80;99.90;;;;;;4978612;28;20195;-88
2021/03/07 06:08:39;;;;;;;2.23;1.67;;;3.90;99.90;;;;;;4961729;28;20219;-86
2021/03/07 06:11:05;;;;;;;5.37;2.30;;;3.80;99.90;;;;;;4975871;28;20215;-88
2021/03/07 06:13:44;;;;;;;1.20;1.20;;;3.80;99.90;;;;;;4976469;28;21484;-89
2021/03/07 06:16:11;;;;;;;1.37;1.27;;;3.80;99.90;;;;;;4991325;28;20254;-87
2021/03/07 06:18:42;;;;;;;1.33;1.33;;;3.80;99.90;;;;;;4973845;28;20227;-87
2021/03/07 06:21:34;;;;;;;0.80;0.80;;;3.80;99.90;;;;;;4985172;28;20261;-88
2021/03/07 06:24:01;;;;;;;1.10;1.10;;;3.80;99.90;;;;;;4990809;28;20223;-89
2021/03/07 06:26:27;;;;;;;3.37;2.17;;;3.80;99.90;;;;;;4975239;28;20219;-87
2021/03/07 06:29:12;;;;;;;4.17;1.53;;;3.90;99.90;;;;;;4976019;28;20265;-86
2021/03/07 06:31:42;;;;;;;2.93;2.00;;;3.90;99.90;;;;;;4992537;28;20744;-86
2021/03/07 06:34:08;;;;;;;1.97;1.53;;;3.90;99.90;;;;;;4993190;28;20319;-87
2021/03/07 06:36:36;;;;;;;2.33;2.13;;;3.90;99.90;;;;;;4975461;28;20671;-89
2021/03/07 06:39:05;;;;;;;7.30;2.70;;;3.90;99.90;;;;;;4977192;28;20229;-88
2021/03/07 06:41:32;;;;;;;1.83;1.60;;;3.90;99.90;;;;;;4991401;28;20278;-89
2021/03/07 06:44:13;;;;;;;2.10;1.83;;;3.90;99.90;;;;;;4991576;28;20216;-88
2021/03/07 06:46:45;;;;;;;2.20;2.00;;;3.90;99.90;;;;;;4995039;28;20224;-89
2021/03/07 06:49:25;;;;;;;1.93;1.73;;;3.90;99.90;;;;;;4996126;28;20222;-88
2021/03/07 06:51:52;;;;;;;3.03;1.80;;;3.90;99.90;;;;;;4989889;28;20231;-88
2021/03/07 06:54:21;;;;;;;1.33;1.30;;;3.90;99.90;;;;;;4975381;28;20220;-89
2021/03/07 06:56:50;;;;;;;1.30;1.20;;;3.90;99.90;;;;;;4997022;28;20402;-89
2021/03/07 06:59:17;;;;;;;1.50;1.27;;;3.90;99.90;;;;;;4989344;28;20247;-90
2021/03/07 07:01:48;;;;;;;1.87;1.77;;;4.00;99.90;;;;;;4975774;28;20221;-89
2021/03/07 07:04:15;;;;;;;1.97;1.73;;;4.00;99.90;;;;;;4973546;28;20218;-90
2021/03/07 07:06:42;;;;;;;2.53;2.43;;;4.00;99.90;;;;;;4978321;28;20235;-89
2021/03/07 07:09:10;;;;;;;3.10;1.93;;;4.00;99.90;;;;;;4996847;28;20184;-89
2021/03/07 07:11:49;;;;;;;0.67;0.67;;;4.10;99.90;;;;;;4973659;28;20242;-89
2021/03/07 07:14:41;;;;;;;5.73;2.23;;;4.00;99.90;;;;;;4975923;28;20712;-87
2021/03/07 07:17:12;;;;;;;1.57;1.43;;;4.10;99.90;;;;;;4989077;28;20216;-88
2021/03/07 07:19:39;;;;;;;2.40;2.17;;;4.00;99.90;;;;;;4979646;28;20223;-89
2021/03/07 07:22:05;;;;;;;3.57;3.00;;;4.10;99.90;;;;;;4972834;28;20637;-89
2021/03/07 07:24:32;;;;;;;2.93;2.63;;;4.10;99.90;;;;;;4988769;28;20267;-90
2021/03/07 07:26:57;;;;;;;1.40;1.40;;;4.10;99.90;;;;;;4964144;28;20563;-89
2021/03/07 07:29:24;;;;;;;1.73;1.63;;;4.00;99.90;;;;;;4971597;28;20223;-88
2021/03/07 07:31:50;;;;;;;2.80;1.60;;;4.10;99.90;;;;;;4961999;28;20212;-89
2021/03/07 07:34:25;;;;;;;2.00;1.90;;;4.10;99.90;;;;;;4989800;28;20297;-88
2021/03/07 07:37:13;;;;;;;3.23;1.53;;;4.10;99.90;;;;;;4975723;28;20250;-89
2021/03/07 07:39:41;;;;;;;3.67;2.57;;;4.10;99.90;;;;;;4988511;28;20259;-91
2021/03/07 07:42:26;;;;;;;3.30;2.43;;;4.10;99.90;;;;;;4991275;28;20196;-90
2021/03/07 07:44:53;;;;;;;5.53;2.37;;;4.10;99.90;;;;;;4990741;28;20227;-90
2021/03/07 07:47:20;;;;;;;2.43;2.30;;;4.10;99.90;;;;;;5008638;28;20227;-89
2021/03/07 07:49:53;;;;;;;4.27;2.00;;;4.20;99.90;;;;;;4974896;28;20302;-88
2021/03/07 07:52:29;;;;;;;3.70;2.50;;;4.20;99.90;;;;;;4989960;28;20228;-89
2021/03/07 07:54:58;;;;;;;2.20;1.63;;;4.20;99.90;;;;;;4992598;28;20297;-89
2021/03/07 07:57:33;;;;;;;2.07;1.93;;;4.20;99.90;;;;;;4981852;28;20207;-89
2021/03/07 08:00:20;;;;;;;2.93;2.63;;;4.30;99.90;;;;;;4999414;28;21118;-90
2021/03/07 08:02:51;;;;;;;1.60;1.23;;;4.30;99.90;;;;;;4997844;28;20206;-88
2021/03/07 08:05:24;;;;;;;5.73;2.43;;;4.30;99.90;;;;;;4996780;28;20234;-88
2021/03/07 08:08:05;;;;;;;9.37;4.03;;;4.30;99.90;;;;;;4997663;28;20568;-87
2021/03/07 08:10:40;;;;;;;4.20;2.43;;;4.30;99.90;;;;;;4979384;28;20216;-87
2021/03/07 08:13:07;;;;;;;4.43;2.27;;;4.40;99.90;;;;;;4987734;28;20226;-88
2021/03/07 08:15:34;;;;;;;1.80;1.70;;;4.40;99.90;;;;;;4972765;28;20672;-88
2021/03/07 08:18:02;;;;;;;2.90;1.97;;;4.40;99.90;;;;;;4990177;28;20192;-87
2021/03/07 08:20:37;;;;;;;2.63;2.17;;;4.50;99.90;;;;;;4971369;28;20257;-87
2021/03/07 08:23:18;;;;;;;3.17;2.23;;;4.50;99.90;;;;;;4989610;28;20273;-90
2021/03/07 08:25:46;;;;;;;2.53;1.63;;;4.60;99.90;;;;;;4972590;28;20262;-87
2021/03/07 08:28:28;;;;;;;3.37;3.17;;;4.60;99.90;;;;;;4995097;28;20688;-87
2021/03/07 08:31:15;;;;;;;1.57;1.30;;;4.70;99.90;;;;;;4985882;28;20310;-90
2021/03/07 08:33:42;;;;;;;3.00;2.63;;;4.80;99.90;;;;;;4984544;28;20231;-87
2021/03/07 08:36:19;;;;;;;5.00;2.37;;;4.80;99.90;;;;;;4996521;28;20172;-89
2021/03/07 08:38:54;;;;;;;3.73;3.43;;;4.90;99.90;;;;;;4988670;28;20211;-88
2021/03/07 08:41:45;;;;;;;3.23;3.03;;;4.90;99.90;;;;;;4978633;28;20230;-90
2021/03/07 08:44:13;;;;;;;3.17;2.87;;;5.00;99.90;;;;;;4987390;28;20680;-91
2021/03/07 08:46:41;;;;;;;3.27;2.90;;;5.00;99.90;;;;;;4985174;28;20246;-90
2021/03/07 08:49:10;;;;;;;4.33;2.83;;;5.00;99.90;;;;;;4997191;28;20229;-90
2021/03/07 08:51:38;;;;;;;4.17;2.87;;;5.10;99.90;;;;;;4998806;28;20235;-90
2021/03/07 08:54:10;;;;;;;5.60;3.47;;;5.20;99.90;;;;;;5000556;28;20206;-91
2021/03/07 08:56:37;;;;;;;4.17;3.87;;;5.40;99.90;;;;;;4999251;28;20258;-89
2021/03/07 08:59:07;;;;;;;7.07;4.13;;;5.50;99.90;;;;;;4974236;28;20370;-89
2021/03/07 09:01:34;;;;;;;5.07;4.17;;;5.60;99.90;;;;;;4959751;28;20226;-93
2021/03/07 09:04:04;;;;;;;5.30;3.97;;;5.70;99.90;;;;;;4977074;28;20228;-91
2021/03/07 09:06:41;;;;;;;4.27;3.17;;;5.80;99.90;;;;;;4979832;28;20192;-89
2021/03/07 09:09:11;;;;;;;3.40;2.93;;;5.80;99.90;;;;;;4982201;28;20230;-93
2021/03/07 09:11:47;;;;;;;4.17;2.60;;;6.10;99.90;;;;;;4963929;28;20231;-90
2021/03/07 09:14:13;;;;;;;3.73;3.07;;;6.20;99.90;;;;;;4992069;28;20236;-91
2021/03/07 09:16:45;;;;;;;2.33;2.10;;;6.00;99.90;;;;;;4982551;28;20215;-90
2021/03/07 09:19:33;;;;;;;4.00;3.60;;;5.90;99.90;;;;;;4993623;28;20310;-91
2021/03/07 09:22:24;;;;;;;3.13;2.83;;;5.90;99.90;;;;;;4999453;28;20313;-93
2021/03/07 09:25:09;;;;;;;1.80;1.43;;;6.10;99.90;;;;;;4979726;28;20742;-91
2021/03/07 09:27:41;;;;;;;2.77;2.57;;;6.20;99.90;;;;;;4990995;28;20188;-90
2021/03/07 09:30:21;;;;;;;1.90;1.80;;;6.10;99.90;;;;;;4995907;28;20279;-92
2021/03/07 09:32:51;;;;;;;6.63;2.47;;;6.10;99.90;;;;;;4974680;28;20219;-91
2021/03/07 09:35:31;;;;;;;3.80;2.83;;;6.10;99.90;;;;;;4991553;28;20306;-91
2021/03/07 09:38:00;;;;;;;3.60;2.90;;;6.20;99.90;;;;;;4996707;28;20299;-91
2021/03/07 09:40:29;;;;;;;2.47;2.27;;;6.30;99.90;;;;;;4991346;28;20247;-91
2021/03/07 09:43:04;;;;;;;2.80;2.40;;;6.20;99.90;;;;;;4997553;28;20228;-91
2021/03/07 09:45:31;;;;;;;2.23;1.43;;;6.20;99.90;;;;;;4981267;28;20194;-90
2021/03/07 09:47:57;;;;;;;5.40;4.30;;;6.30;99.90;;;;;;4992997;28;20275;-91
2021/03/07 09:50:24;;;;;;;4.60;2.43;;;6.40;99.90;;;;;;4953427;28;20220;-91
2021/03/07 09:52:51;;;;;;;3.77;2.53;;;6.40;99.90;;;;;;4961139;28;20257;-92
2021/03/07 09:55:25;;;;;;;4.23;2.90;;;6.30;99.90;;;;;;4986123;28;20234;-91
2021/03/07 09:58:17;;;;;;;7.00;3.23;;;6.40;99.90;;;;;;4981739;28;20244;-89
2021/03/07 10:00:49;;;;;;;4.73;2.40;;;6.40;99.90;;;;;;4972954;28;20581;-92
2021/03/07 10:03:23;;;;;;;3.77;2.73;;;6.40;99.90;;;;;;4996909;28;20195;-92
2021/03/07 10:06:14;;;;;;;5.37;3.50;;;6.30;99.90;;;;;;4995189;28;20211;-92
2021/03/07 10:08:41;;;;;;;4.43;3.13;;;6.30;99.90;;;;;;4991436;28;20247;-91
2021/03/07 10:11:21;;;;;;;6.03;4.57;;;6.40;99.90;;;;;;4976589;28;20220;-91
2021/03/07 10:14:05;;;;;;;4.20;3.17;;;6.50;99.90;;;;;;4997493;28;20222;-91
2021/03/07 10:16:35;;;;;;;4.47;2.00;;;6.60;99.90;;;;;;4999802;28;20215;-90
2021/03/07 10:19:02;;;;;;;12.83;4.80;;;6.50;99.90;;;;;;4982333;28;20223;-92
2021/03/07 10:21:32;;;;;;;7.20;3.53;;;6.60;99.90;;;;;;4999975;28;20593;-91
2021/03/07 10:24:20;;;;;;;5.97;4.53;;;6.70;99.90;;;;;;4984387;28;20199;-91
2021/03/07 10:26:49;;;;;;;4.70;3.43;;;6.80;99.90;;;;;;4998808;28;20247;-92
2021/03/07 10:29:23;;;;;;;9.13;6.13;;;6.90;99.90;;;;;;4999853;28;20234;-90
2021/03/07 10:32:09;;;;;;;5.73;2.40;;;7.00;99.90;;;;;;4969799;28;20228;-91
2021/03/07 10:34:41;;;;;;;4.40;2.27;;;7.10;99.90;;;;;;4974075;28;20254;-90
2021/03/07 10:37:08;;;;;;;2.77;2.57;;;7.10;99.90;;;;;;4995457;28;20218;-91
2021/03/07 10:39:35;;;;;;;2.27;1.77;;;7.00;99.90;;;;;;4974540;28;20191;-90
2021/03/07 10:42:09;;;;;;;2.20;1.87;;;7.00;99.90;;;;;;4977224;28;20188;-91
2021/03/07 10:44:35;;;;;;;6.47;3.87;;;6.90;99.90;;;;;;4991301;28;20258;-89
2021/03/07 10:47:30;;;;;;;2.23;1.93;;;6.90;99.90;;;;;;4997059;28;20211;-92
2021/03/07 10:49:56;;;;;;;7.30;4.07;;;6.80;99.90;;;;;;4952740;28;20232;-91
2021/03/07 10:52:21;;;;;;;6.20;3.03;;;6.90;99.90;;;;;;4960448;28;20284;-91
2021/03/07 10:54:47;;;;;;;2.73;2.00;;;6.90;99.90;;;;;;4951341;28;20705;-91
2021/03/07 10:57:13;;;;;;;2.80;2.47;;;6.90;99.90;;;;;;4955927;28;20195;-92
2021/03/07 10:59:39;;;;;;;2.90;2.43;;;6.90;99.90;;;;;;4974275;28;20243;-91
2021/03/07 11:02:08;;;;;;;3.73;3.47;;;6.80;99.90;;;;;;4966450;28;20243;-92
2021/03/07 11:04:34;;;;;;;8.53;3.00;;;6.80;99.90;;;;;;4985265;28;20223;-91
2021/03/07 11:07:00;;;;;;;1.67;1.57;;;6.80;99.90;;;;;;4994804;28;21218;-91
2021/03/07 11:09:26;;;;;;;3.27;2.73;;;6.90;99.90;;;;;;4994947;28;20699;-91
2021/03/07 11:11:52;;;;;;;4.93;3.23;;;6.90;99.90;;;;;;4979505;28;20253;-89
2021/03/07 11:14:17;;;;;;;9.27;4.37;;;6.90;99.90;;;;;;4960425;28;20762;-92
2021/03/07 11:16:43;;;;;;;4.07;3.70;;;7.00;99.90;;;;;;4984680;28;20219;-91
2021/03/07 11:19:09;;;;;;;7.37;3.73;;;7.20;99.90;;;;;;4991200;28;20232;-91
2021/03/07 11:21:36;;;;;;;7.17;4.07;;;7.10;99.90;;;;;;4991121;28;20704;-89
2021/03/07 11:24:05;;;;;;;7.07;3.17;;;7.10;99.90;;;;;;4997822;28;20219;-91
2021/03/07 11:26:31;;;;;;;3.20;2.60;;;7.10;99.90;;;;;;4938519;28;20216;-88
2021/03/07 11:28:56;;;;;;;7.03;5.10;;;7.20;99.90;;;;;;4975467;28;20242;-93
2021/03/07 11:31:22;;;;;;;6.83;4.67;;;7.10;99.90;;;;;;4970817;28;20672;-92
2021/03/07 11:33:48;;;;;;;6.37;5.77;;;7.00;99.90;;;;;;4997215;28;20593;-90
2021/03/07 11:36:14;;;;;;;9.93;5.07;;;6.90;99.90;;;;;;4977944;28;20875;-92
2021/03/07 11:38:40;;;;;;;3.43;2.90;;;7.00;99.90;;;;;;4981169;28;20215;-92
2021/03/07 11:41:06;;;;;;;3.87;2.20;;;6.80;99.90;;;;;;4975546;28;20215;-92
2021/03/07 11:43:32;;;;;;;2.30;2.17;;;6.70;99.90;;;;;;4954070;28;20966;-90
2021/03/07 11:45:57;;;;;;;4.17;3.20;;;6.60;99.90;;;;;;4973983;28;20265;-90
2021/03/07 11:48:23;;;;;;;7.60;5.43;;;6.60;99.90;;;;;;4972101;28;20198;-91
2021/03/07 11:50:49;;;;;;;7.83;5.33;;;6.50;99.90;;;;;;4989230;28;20318;-94
2021/03/07 11:53:15;;;;;;;10.93;7.20;;;6.40;99.90;;;;;;4974615;28;21031;-91
2021/03/07 11:55:41;;;;;;;11.23;7.17;;;6.50;99.90;;;;;;4972654;28;20612;-91
2021/03/07 11:58:09;;;;;;;6.53;3.20;;;6.70;99.90;;;;;;4992478;28;20257;-91
2021/03/07 12:00:35;;;;;;;4.87;3.03;;;6.70;99.90;;;;;;4981516;28;20192;-89
2021/03/07 12:03:01;;;;;;;7.57;5.90;;;6.60;99.90;;;;;;4982892;28;20195;-89
2021/03/07 12:05:26;;;;;;;2.83;2.23;;;6.70;99.90;;;;;;4997029;28;20215;-90
2021/03/07 12:07:52;;;;;;;5.77;4.77;;;6.70;99.90;;;;;;4980066;28;20219;-89
2021/03/07 12:10:19;;;;;;;7.20;5.50;;;6.70;99.90;;;;;;4978720;28;20215;-91
2021/03/07 12:12:45;;;;;;;7.17;4.07;;;6.70;99.90;;;;;;4972738;28;20219;-89
2021/03/07 12:15:11;;;;;;;7.10;5.10;;;6.70;99.90;;;;;;4983795;28;20994;-87
2021/03/07 12:17:37;;;;;;;6.33;4.67;;;6.70;99.90;;;;;;4998255;28;20215;-88
2021/03/07 12:20:05;;;;;;;4.57;3.67;;;6.70;99.90;;;;;;4981765;28;20579;-89
2021/03/07 12:22:31;;;;;;;3.37;2.57;;;6.80;99.90;;;;;;4985477;28;20345;-88
2021/03/07 12:24:57;;;;;;;4.27;3.87;;;6.80;99.90;;;;;;4985886;28;20758;-89
2021/03/07 12:27:22;;;;;;;3.93;3.63;;;6.70;99.90;;;;;;4961017;28;20191;-89
2021/03/07 12:29:48;;;;;;;6.30;2.47;;;6.70;99.90;;;;;;4984237;28;20195;-86
2021/03/07 12:32:14;;;;;;;1.50;1.30;;;6.60;99.90;;;;;;4984811;28;21176;-87
2021/03/07 12:34:40;;;;;;;4.37;3.70;;;6.70;99.90;;;;;;4977156;28;20231;-89
2021/03/07 12:37:06;;;;;;;7.20;4.07;;;6.70;99.90;;;;;;4977611;28;20222;-88
2021/03/07 12:39:32;;;;;;;4.07;2.73;;;6.60;99.90;;;;;;4982834;28;20183;-91
2021/03/07 12:41:57;;;;;;;2.93;2.47;;;6.50;99.90;;;;;;4979169;28;20191;-89
2021/03/07 12:44:23;;;;;;;10.07;3.80;;;6.40;99.90;;;;;;5002485;28;20766;-91
2021/03/07 12:46:49;;;;;;;7.80;3.17;;;6.30;99.90;;;;;;4984012;28;20701;-89
2021/03/07 12:49:15;;;;;;;3.80;3.50;;;6.30;99.90;;;;;;4985646;28;20222;-91
2021/03/07 12:51:40;;;;;;;6.87;3.27;;;6.20;99.90;;;;;;4985077;28;20223;-90
2021/03/07 12:54:06;;;;;;;7.57;4.70;;;6.20;99.90;;;;;;4984646;28;20241;-90
2021/03/07 12:56:34;;;;;;;4.00;3.03;;;6.20;99.90;;;;;;4976270;28;20317;-90
2021/03/07 12:59:00;;;;;;;3.60;2.43;;;6.20;99.90;;;;;;4981159;28;21332;-90
2021/03/07 13:01:26;;;;;;;7.80;3.90;;;6.30;99.90;;;;;;4993952;28;20297;-88
2021/03/07 13:03:52;;;;;;;3.30;2.57;;;6.30;99.90;;;;;;4983109;28;20318;-88
2021/03/07 13:06:17;;;;;;;1.53;1.43;;;6.40;99.90;;;;;;4984700;28;20648;-85